Time;durP1;ratioP1;P1;durP2;ratioP2;P2;SDS_P1;SDS_P2;PMS_P1;PMS_P2;Temp;Humidity;BMP_temperature;BMP_pressure;BME280_temperature;BME280_humidity;BME280_pressure;Samples;Min_cycle;Max_cycle;Signal;HPM_P1;HPM_P2
2022/01/30 00:02:37;;;;;;;4.70;1.60;;;19.20;48.70;;;;;;6148850;29;20138;-76
2022/01/30 00:05:38;;;;;;;5.80;1.70;;;19.20;48.60;;;;;;6149566;28;20058;-76
2022/01/30 00:08:39;;;;;;;4.00;1.55;;;19.20;48.70;;;;;;6148318;29;20059;-77
2022/01/30 00:11:41;;;;;;;5.75;1.60;;;19.20;48.50;;;;;;6148536;29;20026;-77
2022/01/30 00:14:42;;;;;;;4.90;1.40;;;19.20;48.50;;;;;;6148060;29;20328;-76
2022/01/30 00:17:52;;;;;;;4.60;1.60;;;19.20;49.20;;;;;;6148316;29;20042;-76
2022/01/30 00:21:07;;;;;;;5.35;1.80;;;19.20;48.40;;;;;;6148123;29;20119;-76
2022/01/30 00:24:13;;;;;;;6.45;1.80;;;19.20;48.50;;;;;;6148039;29;20085;-76
2022/01/30 00:27:18;;;;;;;5.13;1.60;;;19.20;48.00;;;;;;6156600;28;20065;-76
2022/01/30 00:30:19;;;;;;;5.72;1.95;;;19.20;48.40;;;;;;6171777;28;20139;-77
2022/01/30 00:33:20;;;;;;;5.75;1.73;;;19.20;48.20;;;;;;6158787;28;20035;-77
2022/01/30 00:36:20;;;;;;;4.95;1.80;;;19.20;47.80;;;;;;6147761;28;20036;-77
2022/01/30 00:39:21;;;;;;;3.90;1.60;;;19.20;48.40;;;;;;6147874;28;20047;-76
2022/01/30 00:42:22;;;;;;;4.50;1.40;;;19.20;48.50;;;;;;6147546;28;20066;-77
2022/01/30 00:45:23;;;;;;;5.75;1.92;;;19.20;48.20;;;;;;6147463;29;20501;-75
2022/01/30 00:48:23;;;;;;;5.25;1.60;;;19.20;48.20;;;;;;6147548;29;20035;-77
2022/01/30 00:51:24;;;;;;;4.35;1.92;;;19.20;48.10;;;;;;6147186;29;20105;-77
2022/01/30 00:54:24;;;;;;;5.35;1.70;;;19.20;48.40;;;;;;6147510;29;20373;-77
2022/01/30 00:57:25;;;;;;;6.80;2.03;;;19.20;48.20;;;;;;6147577;29;20039;-77
2022/01/30 01:00:26;;;;;;;5.00;1.40;;;19.20;48.30;;;;;;6147273;29;20038;-76
2022/01/30 01:03:27;;;;;;;5.82;1.60;;;19.20;47.70;;;;;;6146956;29;20672;-77
2022/01/30 01:06:27;;;;;;;4.32;1.45;;;19.20;47.60;;;;;;6146858;29;20037;-77
2022/01/30 01:09:36;;;;;;;4.13;1.38;;;19.20;48.20;;;;;;6146217;28;20418;-77
2022/01/30 01:12:55;;;;;;;5.82;1.58;;;19.20;48.00;;;;;;6146758;29;20081;-76
2022/01/30 01:25:38;;;;;;;4.85;1.70;;;19.20;48.10;;;;;;6146805;29;20031;-77
2022/01/30 01:28:39;;;;;;;5.65;1.80;;;19.20;48.10;;;;;;6167031;28;20034;-77
2022/01/30 01:31:39;;;;;;;5.85;1.98;;;19.20;48.30;;;;;;6170638;28;20417;-76
2022/01/30 01:34:41;;;;;;;3.58;1.58;;;19.20;48.20;;;;;;6147169;28;20034;-75
2022/01/30 01:37:41;;;;;;;7.13;1.98;;;19.20;47.80;;;;;;6146790;28;20046;-76
2022/01/30 01:40:51;;;;;;;6.68;1.77;;;19.20;48.10;;;;;;6146315;28;20028;-77
2022/01/30 01:43:52;;;;;;;5.80;1.85;;;19.20;48.10;;;;;;6146885;29;20031;-77
2022/01/30 01:46:52;;;;;;;5.85;1.90;;;19.20;48.20;;;;;;6146512;29;20042;-77
2022/01/30 01:49:53;;;;;;;7.22;2.22;;;19.20;47.80;;;;;;6146900;29;20031;-77
2022/01/30 01:52:54;;;;;;;6.53;2.00;;;19.20;47.90;;;;;;6146182;29;20059;-77
2022/01/30 01:55:54;;;;;;;6.30;2.00;;;19.20;48.00;;;;;;6146442;29;20035;-77
2022/01/30 01:58:55;;;;;;;5.78;1.50;;;19.20;47.60;;;;;;6146421;29;20360;-77
2022/01/30 02:01:58;;;;;;;4.30;1.67;;;19.20;48.00;;;;;;6146616;29;20538;-77
2022/01/30 02:05:02;;;;;;;5.25;1.58;;;19.20;48.10;;;;;;6146277;29;20151;-77
2022/01/30 02:11:30;;;;;;;6.68;1.65;;;19.20;48.00;;;;;;6146946;29;20033;-77
2022/01/30 02:15:12;;;;;;;5.65;1.70;;;19.20;48.00;;;;;;6146875;29;20055;-78
2022/01/30 02:24:51;;;;;;;6.78;2.47;;;19.20;48.00;;;;;;6150721;29;20470;-76
2022/01/30 02:27:56;;;;;;;6.20;2.13;;;19.20;48.00;;;;;;6164304;28;20031;-75
2022/01/30 02:31:02;;;;;;;6.55;1.85;;;19.20;47.90;;;;;;6174600;28;20481;-77
2022/01/30 02:34:02;;;;;;;4.78;1.73;;;19.10;47.80;;;;;;6169337;28;20500;-77
2022/01/30 02:37:04;;;;;;;7.68;2.00;;;19.20;47.80;;;;;;6174282;28;20039;-77
2022/01/30 02:40:09;;;;;;;5.40;1.77;;;19.10;47.90;;;;;;6174320;28;20031;-76
2022/01/30 02:43:10;;;;;;;3.45;1.60;;;19.20;47.80;;;;;;6151251;28;20027;-76
2022/01/30 02:46:24;;;;;;;5.00;1.77;;;19.20;47.90;;;;;;6149234;29;20027;-77
2022/01/30 02:52:25;;;;;;;5.07;1.63;;;19.20;47.90;;;;;;6150513;29;20059;-77
2022/01/30 02:55:25;;;;;;;4.63;1.52;;;19.20;47.80;;;;;;6149864;29;20161;-77
2022/01/30 02:58:26;;;;;;;5.07;1.80;;;19.10;47.80;;;;;;6150068;29;20070;-76
2022/01/30 03:01:26;;;;;;;6.90;2.28;;;19.10;47.80;;;;;;6150011;29;20027;-77
2022/01/30 03:04:27;;;;;;;6.38;2.08;;;19.10;47.70;;;;;;6150099;29;20254;-76
2022/01/30 03:07:27;;;;;;;9.15;2.60;;;19.10;47.70;;;;;;6149573;29;20023;-77
2022/01/30 03:10:28;;;;;;;6.93;1.80;;;19.10;47.70;;;;;;6149845;29;20031;-77
2022/01/30 03:13:28;;;;;;;5.68;1.77;;;19.10;47.70;;;;;;6149779;29;20078;-76
2022/01/30 03:16:29;;;;;;;4.32;1.30;;;19.20;47.70;;;;;;6147853;29;20047;-77
2022/01/30 03:19:30;;;;;;;5.05;1.65;;;19.10;47.60;;;;;;6149508;29;20055;-76
2022/01/30 03:22:30;;;;;;;4.85;1.90;;;19.20;47.80;;;;;;6149557;29;20023;-77
2022/01/30 03:25:33;;;;;;;7.47;2.05;;;19.10;47.70;;;;;;6149394;29;20024;-77
2022/01/30 03:28:33;;;;;;;5.18;1.70;;;19.10;47.50;;;;;;6169137;28;20034;-77
2022/01/30 03:31:36;;;;;;;5.38;1.70;;;19.10;47.50;;;;;;6173431;28;20027;-77
2022/01/30 03:34:37;;;;;;;8.80;2.38;;;19.10;47.30;;;;;;6149377;28;20280;-76
2022/01/30 03:37:37;;;;;;;5.05;1.88;;;19.10;47.50;;;;;;6168718;28;20066;-77
2022/01/30 03:40:38;;;;;;;5.55;1.90;;;19.10;47.50;;;;;;6170438;28;20039;-76
2022/01/30 03:43:38;;;;;;;5.55;1.60;;;19.10;47.60;;;;;;6148998;29;20110;-75
2022/01/30 03:46:39;;;;;;;6.18;2.15;;;19.10;47.40;;;;;;6148784;29;20363;-76
2022/01/30 03:49:39;;;;;;;5.05;1.55;;;19.10;47.40;;;;;;6162077;28;20041;-77
2022/01/30 03:52:40;;;;;;;4.80;1.70;;;19.10;47.40;;;;;;6172320;28;20098;-77
2022/01/30 03:55:40;;;;;;;6.78;1.65;;;19.10;47.50;;;;;;6172675;28;20414;-77
2022/01/30 03:58:41;;;;;;;5.78;1.98;;;19.10;47.30;;;;;;6172584;28;20022;-77
2022/01/30 04:01:41;;;;;;;5.95;2.28;;;19.10;47.30;;;;;;6172501;28;20023;-77
2022/01/30 04:04:42;;;;;;;5.10;1.83;;;19.10;47.50;;;;;;6172450;28;20030;-76
2022/01/30 04:07:45;;;;;;;5.22;1.67;;;19.10;47.40;;;;;;6172384;28;20078;-78
2022/01/30 04:10:46;;;;;;;5.60;1.90;;;19.10;47.30;;;;;;6172194;28;20060;-77
2022/01/30 04:13:46;;;;;;;4.20;1.40;;;19.10;47.40;;;;;;6173017;28;20022;-77
2022/01/30 04:16:47;;;;;;;7.32;2.42;;;19.10;47.40;;;;;;6171879;28;20031;-76
2022/01/30 04:19:48;;;;;;;4.97;1.60;;;19.10;47.30;;;;;;6171996;28;20034;-76
2022/01/30 04:22:49;;;;;;;4.20;1.75;;;19.10;47.30;;;;;;6172324;28;20065;-77
2022/01/30 04:25:50;;;;;;;4.88;1.70;;;19.10;47.30;;;;;;6172204;28;20404;-76
2022/01/30 04:28:50;;;;;;;4.95;1.95;;;19.10;47.30;;;;;;6171648;28;20031;-76
2022/01/30 04:31:51;;;;;;;4.57;1.55;;;19.10;47.20;;;;;;6170887;28;20499;-77
2022/01/30 04:34:57;;;;;;;6.70;1.70;;;19.10;47.30;;;;;;6147699;28;20501;-77
2022/01/30 04:38:11;;;;;;;3.85;1.58;;;19.10;47.30;;;;;;6147658;28;20478;-76
2022/01/30 04:57:52;;;;;;;3.60;1.60;;;19.10;47.40;;;;;;6147075;29;20094;-76
2022/01/30 05:04:21;;;;;;;3.70;1.52;;;19.10;47.30;;;;;;6171055;28;20089;-74
2022/01/30 05:10:20;;;;;;;5.95;1.67;;;19.10;47.30;;;;;;6171341;28;20022;-76
2022/01/30 05:13:25;;;;;;;3.55;1.38;;;19.10;47.30;;;;;;6171357;28;20026;-77
2022/01/30 05:16:26;;;;;;;5.95;1.80;;;19.10;47.40;;;;;;6170759;28;20038;-77
2022/01/30 05:19:27;;;;;;;4.93;1.80;;;19.10;47.40;;;;;;6170746;28;20500;-77
2022/01/30 05:22:28;;;;;;;4.63;1.98;;;19.10;47.50;;;;;;6170720;28;20035;-77
2022/01/30 05:25:29;;;;;;;6.85;1.88;;;19.10;47.40;;;;;;6170715;28;20196;-77
2022/01/30 05:28:29;;;;;;;4.53;1.60;;;19.10;48.10;;;;;;6171185;28;20023;-76
2022/01/30 05:31:30;;;;;;;3.72;1.88;;;19.10;47.40;;;;;;6170526;28;20111;-77
2022/01/30 05:34:31;;;;;;;4.68;1.63;;;19.10;47.40;;;;;;6148582;28;20409;-78
2022/01/30 05:37:32;;;;;;;3.92;1.35;;;19.10;47.30;;;;;;6146999;28;20071;-77
2022/01/30 05:40:35;;;;;;;4.68;1.92;;;19.10;47.30;;;;;;6165273;28;20019;-77
2022/01/30 05:43:38;;;;;;;5.45;1.50;;;19.10;47.30;;;;;;6146997;29;20043;-77
2022/01/30 05:46:48;;;;;;;4.03;1.50;;;19.10;47.10;;;;;;6147084;29;20059;-76
2022/01/30 05:49:49;;;;;;;4.70;1.45;;;19.10;47.30;;;;;;6146791;29;20162;-77
2022/01/30 05:52:49;;;;;;;4.72;1.52;;;19.10;47.30;;;;;;6147870;28;20031;-77
2022/01/30 05:55:50;;;;;;;4.55;1.63;;;19.10;47.30;;;;;;6146733;28;20328;-77
2022/01/30 05:58:51;;;;;;;4.30;1.58;;;19.10;47.30;;;;;;6151612;29;20027;-77
2022/01/30 06:01:51;;;;;;;7.10;2.03;;;19.10;47.20;;;;;;6150939;28;20050;-77
2022/01/30 06:04:52;;;;;;;2.75;1.33;;;19.20;47.30;;;;;;6151050;28;20034;-77
2022/01/30 06:07:55;;;;;;;3.78;1.52;;;19.20;47.30;;;;;;6151249;28;20544;-77
2022/01/30 06:10:55;;;;;;;8.05;2.13;;;19.20;47.30;;;;;;6151022;28;20375;-77
2022/01/30 06:13:55;;;;;;;6.28;1.77;;;19.20;47.10;;;;;;6150301;28;20066;-77
2022/01/30 06:16:56;;;;;;;2.58;1.10;;;19.20;46.90;;;;;;6150893;28;20039;-77
2022/01/30 06:19:57;;;;;;;6.20;2.30;;;19.20;47.30;;;;;;6151190;28;20483;-77
2022/01/30 06:22:57;;;;;;;6.38;1.60;;;19.20;47.30;;;;;;6150670;28;20034;-77
2022/01/30 06:25:58;;;;;;;6.60;1.73;;;19.20;47.00;;;;;;6150815;28;20027;-77
2022/01/30 06:28:59;;;;;;;3.83;1.33;;;19.20;47.10;;;;;;6173629;28;20038;-76
2022/01/30 06:31:59;;;;;;;4.68;1.70;;;19.20;47.40;;;;;;6172345;28;20061;-77
2022/01/30 06:35:00;;;;;;;7.20;1.85;;;19.20;47.50;;;;;;6150839;28;20035;-77
2022/01/30 06:38:02;;;;;;;5.63;1.92;;;19.20;47.30;;;;;;6150706;28;20035;-76
2022/01/30 06:41:02;;;;;;;4.90;1.58;;;19.20;47.40;;;;;;6150336;28;20058;-77
2022/01/30 06:44:05;;;;;;;5.97;1.60;;;19.20;47.40;;;;;;6169887;28;20023;-77
2022/01/30 06:47:06;;;;;;;5.75;1.60;;;19.20;47.20;;;;;;6174281;28;20023;-75
2022/01/30 06:50:07;;;;;;;4.43;1.80;;;19.20;47.40;;;;;;6174304;28;20499;-76
2022/01/30 06:53:08;;;;;;;4.53;1.40;;;19.20;47.30;;;;;;6174215;28;20066;-76
2022/01/30 06:56:08;;;;;;;3.58;1.30;;;19.20;47.50;;;;;;6174061;28;20052;-77
2022/01/30 06:59:08;;;;;;;4.13;1.60;;;19.20;47.40;;;;;;6174004;28;20130;-76
2022/01/30 07:02:09;;;;;;;4.20;1.70;;;19.20;47.50;;;;;;6173930;28;20023;-77
2022/01/30 07:05:10;;;;;;;6.60;2.10;;;19.20;47.50;;;;;;6173759;28;20085;-77
2022/01/30 07:08:10;;;;;;;5.47;1.75;;;19.20;47.90;;;;;;6172637;28;20023;-76
2022/01/30 07:11:11;;;;;;;5.60;1.70;;;19.20;47.40;;;;;;6158503;28;20035;-76
2022/01/30 07:14:12;;;;;;;5.70;1.63;;;19.20;47.50;;;;;;6171522;28;20060;-76
2022/01/30 07:17:12;;;;;;;6.80;1.60;;;19.20;47.60;;;;;;6170153;28;20031;-77
2022/01/30 07:20:13;;;;;;;6.13;1.90;;;19.20;47.30;;;;;;6171434;28;20019;-76
2022/01/30 07:23:13;;;;;;;3.88;1.48;;;19.20;47.60;;;;;;6171430;28;20059;-76
2022/01/30 07:26:14;;;;;;;9.63;1.67;;;19.20;47.70;;;;;;6171162;28;20026;-76
2022/01/30 07:29:14;;;;;;;4.50;1.55;;;19.20;47.70;;;;;;6170880;28;20389;-77
2022/01/30 07:32:15;;;;;;;4.30;1.40;;;19.20;47.60;;;;;;6170022;28;20058;-76
2022/01/30 07:35:17;;;;;;;4.97;1.60;;;19.20;47.80;;;;;;6170630;28;20544;-76
2022/01/30 07:38:19;;;;;;;4.75;1.40;;;19.20;47.80;;;;;;6170439;28;20472;-77
2022/01/30 07:41:20;;;;;;;5.47;1.77;;;19.20;47.70;;;;;;6163087;28;20038;-78
2022/01/30 07:44:21;;;;;;;4.45;1.48;;;19.20;47.80;;;;;;6151725;28;20502;-77
2022/01/30 07:47:22;;;;;;;5.60;1.77;;;19.20;47.90;;;;;;6169986;28;20066;-77
2022/01/30 07:50:23;;;;;;;8.98;1.70;;;19.20;47.70;;;;;;6168916;28;20062;-78
2022/01/30 07:53:23;;;;;;;5.50;1.30;;;19.20;47.80;;;;;;6168745;28;20683;-77
2022/01/30 07:56:24;;;;;;;5.28;1.50;;;19.20;47.90;;;;;;6169323;28;20042;-77
2022/01/30 07:59:24;;;;;;;3.75;1.40;;;19.20;47.80;;;;;;6169508;28;20371;-77
2022/01/30 08:02:25;;;;;;;9.15;2.03;;;19.20;47.90;;;;;;6168822;28;20066;-77
2022/01/30 08:05:26;;;;;;;6.90;1.70;;;19.20;47.90;;;;;;6168795;28;20026;-76
2022/01/30 08:08:26;;;;;;;4.63;1.30;;;19.20;47.90;;;;;;6167305;28;20015;-77
2022/01/30 08:11:27;;;;;;;4.93;1.45;;;19.20;48.00;;;;;;6168702;28;20027;-77
2022/01/30 08:14:27;;;;;;;4.30;1.67;;;19.20;48.10;;;;;;6190142;28;20034;-77
2022/01/30 08:17:31;;;;;;;5.05;1.65;;;19.20;48.10;;;;;;6170736;28;20107;-77
2022/01/30 08:20:32;;;;;;;4.55;1.75;;;19.20;48.10;;;;;;6167833;28;20115;-76
2022/01/30 08:23:33;;;;;;;4.50;1.70;;;19.20;48.00;;;;;;6161022;28;20486;-76
2022/01/30 08:26:34;;;;;;;5.13;1.88;;;19.20;48.00;;;;;;6169199;28;20041;-76
2022/01/30 08:29:34;;;;;;;5.90;1.50;;;19.20;48.20;;;;;;6168748;28;20036;-76
2022/01/30 08:32:44;;;;;;;5.35;1.80;;;19.20;48.10;;;;;;6167963;28;20089;-77
2022/01/30 08:35:46;;;;;;;4.50;1.40;;;19.20;48.20;;;;;;6168736;28;20038;-76
2022/01/30 08:38:46;;;;;;;4.05;1.52;;;19.20;48.10;;;;;;6168323;28;20058;-76
2022/01/30 08:41:47;;;;;;;6.68;1.67;;;19.20;48.10;;;;;;6170111;28;20031;-75
2022/01/30 08:44:47;;;;;;;6.47;2.03;;;19.20;48.10;;;;;;6170869;28;20027;-77
2022/01/30 08:47:50;;;;;;;5.90;1.90;;;19.20;48.20;;;;;;6171217;28;20035;-77
2022/01/30 08:50:51;;;;;;;4.28;1.73;;;19.20;48.10;;;;;;6171376;28;20031;-77
2022/01/30 08:53:51;;;;;;;6.25;1.83;;;19.20;48.00;;;;;;6171209;28;20058;-78
2022/01/30 08:56:52;;;;;;;6.55;2.10;;;19.20;47.90;;;;;;6171007;28;20073;-76
2022/01/30 08:59:54;;;;;;;5.18;1.65;;;19.20;47.80;;;;;;6171701;28;20047;-76
2022/01/30 09:02:57;;;;;;;4.85;1.65;;;19.20;47.90;;;;;;6171000;28;20023;-77
2022/01/30 09:05:58;;;;;;;4.93;1.67;;;19.20;47.80;;;;;;6171546;28;20052;-77
2022/01/30 09:09:02;;;;;;;4.00;1.38;;;19.20;47.80;;;;;;6171673;28;20546;-77
2022/01/30 09:12:03;;;;;;;7.27;1.87;;;19.20;47.90;;;;;;6170666;28;20397;-76
2022/01/30 09:15:07;;;;;;;6.78;1.75;;;19.20;47.90;;;;;;6170707;28;20043;-77
2022/01/30 09:18:10;;;;;;;3.90;1.63;;;19.20;47.90;;;;;;6170874;28;20505;-76
2022/01/30 09:21:11;;;;;;;6.75;2.00;;;19.20;47.90;;;;;;6170907;28;20470;-76
2022/01/30 09:24:14;;;;;;;5.57;2.00;;;19.20;47.70;;;;;;6170749;28;20034;-76
2022/01/30 09:27:14;;;;;;;6.72;1.75;;;19.20;47.80;;;;;;6170915;28;20363;-77
2022/01/30 09:30:16;;;;;;;5.70;1.83;;;19.20;47.50;;;;;;6170436;28;20047;-77
2022/01/30 09:33:16;;;;;;;8.50;2.15;;;19.20;47.80;;;;;;6170412;28;20023;-77
2022/01/30 09:36:17;;;;;;;5.07;1.70;;;19.20;48.20;;;;;;6170481;28;20106;-77
2022/01/30 09:39:17;;;;;;;3.67;1.67;;;19.20;47.70;;;;;;6170669;28;20019;-77
2022/01/30 09:42:18;;;;;;;5.47;1.88;;;19.20;47.80;;;;;;6170558;28;20027;-76
2022/01/30 09:45:22;;;;;;;3.78;1.70;;;19.20;47.80;;;;;;6170676;28;20030;-77
2022/01/30 09:48:24;;;;;;;4.57;1.75;;;19.20;47.90;;;;;;6170704;28;20026;-77
2022/01/30 09:51:24;;;;;;;3.40;1.48;;;19.20;48.00;;;;;;6171093;28;20022;-76
2022/01/30 09:54:25;;;;;;;6.75;1.92;;;19.20;47.90;;;;;;6170621;28;20568;-76
2022/01/30 09:57:25;;;;;;;7.00;2.03;;;19.20;47.60;;;;;;6170457;28;20039;-76
2022/01/30 10:00:26;;;;;;;5.53;2.13;;;19.20;48.00;;;;;;6170604;28;20027;-76
2022/01/30 10:03:27;;;;;;;4.25;1.63;;;19.20;48.00;;;;;;6170542;28;20034;-76
2022/01/30 10:06:35;;;;;;;3.88;1.50;;;19.20;48.00;;;;;;6170487;28;20058;-76
2022/01/30 10:09:42;;;;;;;3.95;1.60;;;19.20;48.00;;;;;;6170579;28;20501;-75
2022/01/30 10:13:01;;;;;;;5.20;1.83;;;19.20;48.10;;;;;;6170782;28;20047;-76
2022/01/30 10:16:04;;;;;;;4.35;1.80;;;19.20;48.10;;;;;;6170130;28;20985;-77
2022/01/30 10:19:30;;;;;;;5.65;2.20;;;19.20;48.20;;;;;;6170249;28;20444;-77
2022/01/30 10:22:31;;;;;;;5.05;1.58;;;19.20;48.10;;;;;;6169016;28;20070;-76
2022/01/30 10:25:35;;;;;;;4.93;1.98;;;19.20;48.20;;;;;;6169888;28;20031;-76
2022/01/30 10:28:36;;;;;;;6.18;2.05;;;19.20;48.20;;;;;;6170427;28;20031;-76
2022/01/30 10:32:06;;;;;;;5.55;2.45;;;19.20;48.20;;;;;;6170238;28;20489;-76
2022/01/30 10:35:09;;;;;;;5.80;2.05;;;19.20;48.20;;;;;;6169714;28;20117;-77
2022/01/30 10:38:21;;;;;;;5.55;2.35;;;19.20;48.20;;;;;;6170555;28;20481;-76
2022/01/30 10:41:23;;;;;;;8.88;2.53;;;19.20;48.20;;;;;;6170594;28;20117;-76
2022/01/30 10:44:23;;;;;;;4.10;2.10;;;19.20;48.20;;;;;;6173796;28;20054;-77
2022/01/30 10:47:24;;;;;;;6.25;2.45;;;19.20;48.20;;;;;;6174364;28;20023;-76
2022/01/30 10:50:25;;;;;;;5.70;2.30;;;19.20;48.20;;;;;;6173985;28;20027;-77
2022/01/30 10:53:26;;;;;;;7.18;2.28;;;19.20;48.20;;;;;;6174259;28;20130;-78
2022/01/30 10:56:29;;;;;;;6.75;2.50;;;19.20;48.30;;;;;;6172948;28;20076;-76
2022/01/30 10:59:29;;;;;;;4.78;2.30;;;19.20;48.30;;;;;;6173465;28;20023;-76
2022/01/30 11:02:39;;;;;;;4.30;2.22;;;19.20;48.20;;;;;;6174371;28;20535;-78
2022/01/30 11:05:58;;;;;;;5.03;2.30;;;19.20;48.30;;;;;;6174304;28;20054;-75
2022/01/30 11:09:13;;;;;;;5.35;2.50;;;19.20;48.30;;;;;;6170606;28;20030;-77
2022/01/30 11:12:15;;;;;;;5.90;2.30;;;19.20;48.40;;;;;;6174184;28;20030;-76
2022/01/30 11:15:34;;;;;;;7.32;2.42;;;19.20;48.30;;;;;;6173991;28;20482;-76
2022/01/30 11:18:34;;;;;;;7.35;2.70;;;19.20;48.30;;;;;;6173765;28;20513;-76
2022/01/30 11:21:38;;;;;;;6.35;3.13;;;19.20;48.30;;;;;;6173624;28;20072;-77
2022/01/30 11:24:44;;;;;;;6.20;2.75;;;19.20;48.40;;;;;;6173889;28;20031;-76
2022/01/30 11:27:47;;;;;;;7.72;3.10;;;19.20;48.40;;;;;;6173236;28;20037;-77
2022/01/30 11:30:49;;;;;;;5.85;3.05;;;19.20;48.30;;;;;;6175812;28;20450;-76
2022/01/30 11:33:52;;;;;;;5.13;2.88;;;19.20;48.30;;;;;;6156796;28;20466;-77
2022/01/30 11:36:53;;;;;;;6.25;3.17;;;19.30;48.40;;;;;;6149176;28;20050;-77
2022/01/30 11:39:54;;;;;;;5.90;2.58;;;19.20;48.30;;;;;;6149072;28;20039;-77
2022/01/30 11:42:55;;;;;;;5.43;2.80;;;19.20;48.40;;;;;;6149428;28;20498;-76
2022/01/30 11:46:15;;;;;;;7.20;3.03;;;19.30;48.50;;;;;;6147937;29;20042;-76
2022/01/30 11:49:16;;;;;;;7.53;3.03;;;19.20;48.50;;;;;;6148799;29;20023;-76
2022/01/30 11:52:18;;;;;;;6.28;3.05;;;19.20;48.40;;;;;;6149500;29;20489;-77
2022/01/30 11:55:42;;;;;;;7.05;2.92;;;19.30;48.50;;;;;;6147934;28;20055;-77
2022/01/30 11:58:46;;;;;;;6.40;2.90;;;19.20;48.40;;;;;;6148251;29;20043;-77
2022/01/30 12:01:47;;;;;;;5.85;2.97;;;19.30;48.50;;;;;;6149198;29;20031;-76
2022/01/30 12:05:04;;;;;;;6.47;3.20;;;19.20;48.40;;;;;;6147238;29;20043;-76
2022/01/30 12:08:25;;;;;;;7.07;3.60;;;19.20;48.50;;;;;;6148713;29;20052;-77
2022/01/30 12:11:35;;;;;;;7.00;3.40;;;19.20;48.50;;;;;;6148417;29;20097;-76
2022/01/30 12:14:45;;;;;;;7.10;3.30;;;19.20;48.50;;;;;;6148479;29;20024;-76
2022/01/30 12:17:47;;;;;;;8.18;3.40;;;19.30;48.60;;;;;;6148412;29;20043;-76
2022/01/30 12:20:59;;;;;;;6.32;3.20;;;19.20;48.40;;;;;;6165973;28;20118;-77
2022/01/30 12:24:21;;;;;;;8.15;3.35;;;19.20;48.40;;;;;;6172370;28;20035;-76
2022/01/30 12:27:41;;;;;;;8.25;3.67;;;19.30;48.50;;;;;;6171846;28;20232;-76
2022/01/30 12:30:46;;;;;;;9.68;3.90;;;19.20;48.50;;;;;;6154473;28;20038;-77
2022/01/30 12:33:48;;;;;;;7.85;4.30;;;19.30;48.20;;;;;;6170218;28;20524;-76
2022/01/30 12:36:53;;;;;;;10.20;4.38;;;19.30;48.50;;;;;;6174053;28;20023;-74
2022/01/30 12:39:55;;;;;;;9.57;4.03;;;19.30;48.40;;;;;;6167815;28;20027;-76
2022/01/30 12:42:55;;;;;;;8.07;3.97;;;19.30;48.50;;;;;;6170528;28;20374;-75
2022/01/30 12:46:07;;;;;;;7.35;3.72;;;19.30;48.50;;;;;;6169362;28;20335;-74
2022/01/30 12:49:13;;;;;;;9.48;3.88;;;19.30;48.50;;;;;;6168158;28;20081;-76
2022/01/30 12:52:49;;;;;;;13.52;5.10;;;19.30;48.50;;;;;;6190288;28;20381;-76
2022/01/30 12:55:41;;;;;;;11.20;4.82;;;19.30;48.60;;;;;;6169208;28;20050;-76
2022/01/30 12:58:48;;;;;;;27.65;5.93;;;19.20;48.90;;;;;;6171357;28;20057;-76
2022/01/30 13:01:48;;;;;;;25.80;6.03;;;19.20;48.30;;;;;;6167799;28;20126;-74
2022/01/30 13:04:58;;;;;;;18.35;6.32;;;19.20;46.90;;;;;;6168640;28;20027;-75
2022/01/30 13:08:00;;;;;;;19.25;6.57;;;19.10;47.30;;;;;;6169118;28;20061;-75
2022/01/30 13:11:23;;;;;;;25.27;7.95;;;19.10;47.00;;;;;;6169019;28;20038;-74
2022/01/30 13:14:36;;;;;;;21.88;6.82;;;19.00;46.30;;;;;;6168978;28;20038;-74
2022/01/30 13:17:38;;;;;;;29.00;8.23;;;19.00;46.20;;;;;;6168793;28;20197;-75
2022/01/30 13:20:38;;;;;;;29.17;8.25;;;19.00;44.80;;;;;;6168398;28;20461;-75
2022/01/30 13:23:45;;;;;;;30.08;7.97;;;19.00;45.10;;;;;;6168714;28;20256;-75
2022/01/30 13:26:47;;;;;;;21.58;7.32;;;18.90;45.00;;;;;;6168638;28;20461;-74
2022/01/30 13:29:47;;;;;;;29.08;9.05;;;18.90;45.30;;;;;;6168624;28;20086;-75
2022/01/30 13:32:48;;;;;;;28.52;7.82;;;18.90;45.90;;;;;;6168046;28;20771;-75
2022/01/30 13:35:48;;;;;;;29.77;8.40;;;18.90;44.40;;;;;;6155441;28;20022;-75
2022/01/30 13:38:49;;;;;;;27.33;8.35;;;18.90;44.30;;;;;;6169104;28;20047;-75
2022/01/30 13:42:00;;;;;;;25.77;8.30;;;18.90;43.80;;;;;;6168563;28;20093;-73
2022/01/30 13:48:22;;;;;;;32.58;8.32;;;18.80;43.60;;;;;;6169429;28;20085;-73
2022/01/30 13:51:22;;;;;;;30.15;8.93;;;18.80;43.10;;;;;;6171172;28;20085;-73
2022/01/30 13:54:24;;;;;;;29.42;8.27;;;18.90;43.60;;;;;;6168124;28;20058;-73
2022/01/30 13:57:31;;;;;;;32.78;9.48;;;18.90;43.40;;;;;;6168594;28;20043;-74
2022/01/30 14:00:36;;;;;;;30.80;7.97;;;18.80;43.20;;;;;;6167934;28;20045;-77
2022/01/30 14:03:39;;;;;;;31.58;8.40;;;18.80;42.60;;;;;;6164695;28;20048;-76
2022/01/30 14:06:42;;;;;;;38.20;8.73;;;18.80;42.70;;;;;;6165413;28;20058;-77
2022/01/30 14:09:48;;;;;;;30.55;8.30;;;18.80;42.30;;;;;;6165513;28;20041;-75
2022/01/30 14:12:50;;;;;;;30.20;8.32;;;18.80;43.50;;;;;;6163581;28;20032;-75
2022/01/30 14:16:06;;;;;;;28.25;8.00;;;18.80;42.20;;;;;;6164350;28;20516;-76
2022/01/30 14:19:49;;;;;;;26.55;8.32;;;18.80;41.90;;;;;;6168658;28;20445;-76
2022/01/30 14:23:10;;;;;;;32.75;8.57;;;18.70;42.00;;;;;;6159738;28;20122;-76
2022/01/30 14:26:26;;;;;;;31.50;8.57;;;18.70;42.10;;;;;;6167919;28;20049;-77
2022/01/30 14:29:26;;;;;;;24.98;8.68;;;18.70;41.20;;;;;;6171719;28;20025;-76
2022/01/30 14:32:33;;;;;;;33.95;8.23;;;18.80;41.70;;;;;;6169022;28;20042;-76
2022/01/30 14:35:36;;;;;;;51.83;9.68;;;18.80;41.30;;;;;;6169498;28;20035;-73
2022/01/30 14:38:44;;;;;;;32.85;8.05;;;18.80;41.30;;;;;;6170825;28;20049;-75
2022/01/30 14:41:45;;;;;;;34.75;8.32;;;18.90;40.80;;;;;;6169367;28;20062;-75
2022/01/30 14:44:45;;;;;;;34.13;9.68;;;19.00;41.20;;;;;;6169124;28;20034;-75
2022/01/30 14:47:46;;;;;;;32.30;8.23;;;19.00;41.30;;;;;;6169799;28;20395;-76
2022/01/30 14:50:46;;;;;;;29.67;8.10;;;19.00;41.50;;;;;;6169237;28;20047;-74
2022/01/30 14:53:47;;;;;;;29.83;8.48;;;19.00;41.70;;;;;;6168373;28;20047;-73
2022/01/30 14:56:48;;;;;;;32.08;7.47;;;19.10;42.00;;;;;;6168989;28;20054;-74
2022/01/30 14:59:48;;;;;;;28.38;7.97;;;19.00;42.20;;;;;;6168943;28;20030;-73
2022/01/30 15:02:50;;;;;;;21.85;7.43;;;19.00;42.40;;;;;;6169019;28;20034;-74
2022/01/30 15:05:50;;;;;;;23.08;7.82;;;19.00;42.60;;;;;;6168687;28;20030;-73
2022/01/30 15:08:51;;;;;;;28.25;8.50;;;19.00;42.70;;;;;;6168531;28;20090;-74
2022/01/30 15:11:51;;;;;;;28.13;8.27;;;19.00;42.80;;;;;;6168480;28;20378;-74
2022/01/30 15:14:53;;;;;;;22.90;7.15;;;19.00;42.90;;;;;;6168491;28;20452;-75
2022/01/30 15:17:54;;;;;;;19.73;7.25;;;19.10;42.90;;;;;;6168890;28;20129;-73
2022/01/30 15:20:55;;;;;;;24.58;7.35;;;19.10;43.00;;;;;;6168802;28;20019;-73
2022/01/30 15:23:55;;;;;;;22.48;7.50;;;19.10;43.20;;;;;;6167658;28;20026;-74
2022/01/30 15:26:56;;;;;;;17.95;7.55;;;19.10;43.40;;;;;;6168166;28;20027;-74
2022/01/30 15:29:57;;;;;;;22.90;8.95;;;19.10;43.90;;;;;;6167164;28;20482;-74
2022/01/30 15:32:57;;;;;;;19.20;7.35;;;19.00;44.50;;;;;;6167586;28;20392;-73
2022/01/30 15:35:58;;;;;;;33.78;9.80;;;18.90;44.20;;;;;;6185876;28;20367;-74
2022/01/30 15:38:58;;;;;;;45.83;12.30;;;18.90;44.00;;;;;;6167994;28;20340;-74
2022/01/30 15:41:59;;;;;;;39.88;11.57;;;19.00;41.90;;;;;;6167708;28;20031;-74
2022/01/30 15:51:19;;;;;;;38.55;10.57;;;19.00;42.50;;;;;;6168273;28;20393;-76
2022/01/30 15:54:22;;;;;;;31.70;10.45;;;19.10;42.70;;;;;;6167312;28;20065;-76
2022/01/30 15:57:23;;;;;;;34.97;9.75;;;19.00;42.70;;;;;;6157053;28;20402;-74
2022/01/30 16:00:24;;;;;;;39.60;9.90;;;19.00;41.20;;;;;;6169957;28;20034;-74
2022/01/30 16:03:24;;;;;;;35.65;10.10;;;19.00;40.90;;;;;;6170758;28;20055;-74
2022/01/30 16:06:25;;;;;;;38.35;9.48;;;19.00;41.40;;;;;;6170289;28;20097;-74
2022/01/30 16:09:32;;;;;;;30.75;9.35;;;19.00;41.90;;;;;;6170132;28;20401;-74
2022/01/30 16:15:37;;;;;;;32.80;9.02;;;19.00;42.50;;;;;;6170740;28;20019;-74
2022/01/30 16:18:38;;;;;;;30.13;9.52;;;19.10;42.60;;;;;;6170326;28;20516;-74
2022/01/30 16:21:38;;;;;;;30.02;9.23;;;19.20;42.80;;;;;;6167482;28;20037;-73
2022/01/30 16:24:39;;;;;;;32.72;9.27;;;19.20;42.50;;;;;;6153397;28;20114;-73
2022/01/30 16:27:41;;;;;;;26.48;8.60;;;19.20;42.90;;;;;;6170026;28;20035;-74
2022/01/30 16:30:42;;;;;;;27.40;8.50;;;19.20;42.80;;;;;;6169858;28;20081;-74
2022/01/30 16:33:44;;;;;;;26.63;8.30;;;19.20;42.80;;;;;;6161338;28;20023;-74
2022/01/30 16:36:44;;;;;;;24.98;8.73;;;19.20;42.80;;;;;;6167428;28;20440;-74
2022/01/30 16:39:45;;;;;;;25.35;8.32;;;19.20;43.10;;;;;;6168957;28;20046;-74
2022/01/30 16:42:45;;;;;;;26.23;9.02;;;19.20;43.30;;;;;;6172299;28;20104;-76
2022/01/30 16:45:50;;;;;;;27.52;8.45;;;19.20;43.40;;;;;;6160744;28;20442;-75
2022/01/30 16:48:50;;;;;;;23.13;8.40;;;19.20;43.10;;;;;;6169464;28;20101;-75